White Mills, Pennsylvania
Current Conditions -  °F | °C
As of 4:55 AM on Thursday 23 Oct 2014 (Local Time) from KMSV Reporting Station
Overcast Overcast  
Wind Chill: 41°   Ceiling: 2000
Heat Index: 46°   Visibility: 10mi
Dew Point: 45°   Wind: 13mph
Humidity: 93%   Direction: 340°NNW
Pressure: 29.8"   Gusts: 17mph
Location:  41.53°N, 75.2°W
Report Text: KMSV 230855Z AUTO 34011G15KT 10SM BKN020 OVC024 08/07 A2980 RMK AO1 57014
Loading
Personal Weather Stations






























Interactive Weather Map
Tropical Storm Tracking
New forecast layout! Learn more

10-Day Weather Forecast

Advertisements
Track Severe Weather on mobile